createdAt,value
2019-06-26T00:03:08.701Z,94.40
2019-06-26T00:08:13.144Z,94.70
2019-06-26T00:13:26.167Z,94.90
2019-06-26T00:18:23.580Z,95.40
2019-06-26T00:23:27.896Z,95.50
2019-06-26T00:28:32.217Z,95.60
2019-06-26T00:33:36.545Z,95.90
2019-06-26T00:38:40.929Z,96.00
2019-06-26T00:43:45.330Z,96.20
2019-06-26T00:48:49.648Z,96.40
2019-06-26T00:53:54.059Z,96.30
2019-06-26T00:58:58.457Z,96.60
2019-06-26T01:04:04.420Z,96.80
2019-06-26T01:09:08.799Z,96.90
2019-06-26T01:14:13.124Z,96.90
2019-06-26T01:19:17.519Z,97.30
2019-06-26T01:24:21.915Z,97.50
2019-06-26T01:29:26.312Z,97.50
2019-06-26T01:34:30.743Z,97.60
2019-06-26T01:39:35.738Z,97.70
2019-06-26T01:44:40.816Z,97.70
2019-06-26T01:49:45.132Z,97.90
2019-06-26T01:54:49.463Z,97.90
2019-06-26T01:59:53.869Z,98.30
2019-06-26T02:04:58.261Z,98.90
2019-06-26T02:10:03.041Z,98.80
2019-06-26T02:15:08.976Z,99.00
2019-06-26T02:20:13.365Z,99.10
2019-06-26T02:25:18.109Z,98.90
2019-06-26T02:30:22.501Z,98.80
2019-06-26T02:35:26.822Z,98.60
2019-06-26T02:40:31.142Z,98.80
2019-06-26T02:45:35.535Z,98.80
2019-06-26T02:50:40.014Z,98.90
2019-06-26T02:55:44.338Z,98.80
2019-06-26T03:00:48.937Z,98.90
2019-06-26T03:05:53.351Z,98.80
2019-06-26T03:10:57.765Z,99.00
2019-06-26T03:16:02.088Z,99.00
2019-06-26T03:21:06.517Z,98.90
2019-06-26T03:26:10.888Z,98.90
2019-06-26T03:42:03.090Z,99.20
2019-06-26T03:47:07.675Z,99.20
2019-06-26T03:52:12.075Z,99.20
2019-06-26T03:57:16.402Z,99.10
2019-06-26T04:02:20.730Z,99.20
2019-06-26T04:07:25.047Z,99.20
2019-06-26T04:12:29.379Z,99.10
2019-06-26T04:17:33.777Z,99.40
2019-06-26T04:22:38.155Z,99.10
2019-06-26T04:27:42.483Z,99.00
2019-06-26T04:32:46.804Z,99.20
2019-06-26T04:37:51.191Z,99.30
2019-06-26T04:42:55.527Z,99.20
2019-06-26T04:47:59.853Z,99.00
2019-06-26T04:53:04.242Z,98.90
2019-06-26T04:58:08.654Z,98.60
2019-06-26T05:03:13.042Z,98.40
2019-06-26T05:08:17.433Z,98.30
2019-06-26T05:13:21.826Z,98.20
2019-06-26T05:18:26.156Z,98.20
2019-06-26T05:23:30.544Z,98.10
2019-06-26T05:28:34.943Z,97.90
2019-06-26T05:33:39.371Z,97.80
2019-06-26T05:38:43.752Z,97.60
2019-06-26T05:43:48.146Z,97.50
2019-06-26T05:48:52.536Z,97.20
2019-06-26T05:53:57.435Z,97.10
2019-06-26T05:59:01.823Z,96.50
2019-06-26T06:04:06.502Z,96.30
2019-06-26T06:09:10.912Z,96.00
2019-06-26T06:14:15.228Z,95.70
2019-06-26T06:19:19.620Z,95.90
2019-06-26T06:24:25.517Z,95.30
2019-06-26T06:29:30.930Z,95.00
2019-06-26T06:34:35.290Z,94.70
2019-06-26T06:39:39.605Z,94.10
2019-06-26T06:44:44.007Z,93.90
2019-06-26T06:49:48.334Z,93.60
2019-06-26T06:54:53.049Z,93.70
2019-06-26T06:59:59.454Z,92.60
2019-06-26T07:05:08.759Z,92.20
2019-06-26T07:10:14.498Z,91.90
2019-06-26T07:15:19.436Z,92.10
2019-06-26T07:20:24.171Z,91.80
2019-06-26T07:25:28.567Z,91.10
2019-06-26T07:30:32.971Z,91.10
2019-06-26T07:35:37.295Z,90.50
2019-06-26T07:40:41.633Z,90.50
2019-06-26T07:45:46.019Z,90.30
2019-06-26T07:50:50.407Z,89.20
2019-06-26T07:55:54.722Z,88.80
2019-06-26T08:00:59.314Z,88.10
2019-06-26T08:06:03.712Z,89.10
2019-06-26T08:11:08.096Z,88.10
2019-06-26T08:16:12.490Z,86.80
2019-06-26T08:21:16.803Z,87.50
2019-06-26T08:26:21.200Z,87.00
2019-06-26T08:31:25.625Z,87.50
2019-06-26T08:36:29.986Z,87.10
2019-06-26T08:41:34.381Z,87.90
2019-06-26T08:46:38.707Z,87.30
2019-06-26T08:51:43.146Z,89.10
2019-06-26T08:56:47.541Z,89.90
2019-06-26T09:01:51.874Z,88.40
2019-06-26T09:06:56.207Z,86.10
2019-06-26T09:12:00.819Z,85.70
2019-06-26T09:17:05.148Z,84.30
2019-06-26T09:22:09.542Z,82.10
2019-06-26T09:27:15.167Z,82.70
2019-06-26T09:32:19.625Z,82.10
2019-06-26T09:37:23.933Z,81.80
2019-06-26T09:42:28.253Z,81.60
2019-06-26T09:47:32.646Z,80.20
2019-06-26T09:52:37.042Z,79.80
2019-06-26T09:57:41.437Z,81.10
2019-06-26T10:02:45.827Z,81.50
2019-06-26T10:07:50.559Z,80.90
2019-06-26T10:12:54.875Z,78.10
2019-06-26T10:17:59.356Z,79.10
2019-06-26T10:23:03.791Z,78.60
2019-06-26T10:28:08.306Z,77.60
2019-06-26T10:33:12.708Z,77.70
2019-06-26T10:38:17.240Z,78.10
2019-06-26T10:43:21.565Z,77.80
2019-06-26T10:48:25.967Z,77.60
2019-06-26T10:53:30.309Z,77.70
2019-06-26T10:58:34.718Z,79.50
2019-06-26T11:03:39.119Z,79.70
2019-06-26T11:08:44.638Z,79.90
2019-06-26T11:13:49.000Z,80.00
2019-06-26T11:18:53.435Z,79.70
2019-06-26T11:23:57.857Z,78.40
2019-06-26T11:29:02.239Z,78.90
2019-06-26T11:34:06.831Z,79.00
2019-06-26T11:39:11.174Z,77.60
2019-06-26T11:44:15.485Z,76.80
2019-06-26T11:49:19.814Z,74.90
2019-06-26T11:54:24.135Z,74.30
2019-06-26T11:59:28.490Z,73.80
2019-06-26T12:04:32.813Z,73.90
2019-06-26T12:09:37.146Z,70.30
2019-06-26T12:14:41.463Z,71.60
2019-06-26T12:19:45.797Z,71.90
2019-06-26T12:24:50.125Z,69.40
2019-06-26T12:29:54.519Z,68.80
2019-06-26T12:34:58.917Z,65.80
2019-06-26T12:40:04.388Z,64.80
2019-06-26T12:45:09.748Z,62.40
2019-06-26T12:50:30.885Z,62.50
2019-06-26T12:55:23.567Z,61.10
2019-06-26T13:00:27.889Z,61.90
2019-06-26T13:05:32.295Z,60.60
2019-06-26T13:10:48.924Z,59.70
2019-06-26T13:15:42.042Z,60.60
2019-06-26T13:20:52.985Z,58.10
2019-06-26T13:25:52.523Z,60.20
2019-06-26T13:30:56.857Z,57.50
2019-06-26T13:36:02.948Z,56.70
2019-06-26T13:41:07.226Z,56.90
2019-06-26T13:46:11.690Z,57.30
2019-06-26T13:51:16.092Z,58.00
2019-06-26T13:56:20.437Z,58.40
2019-06-26T14:01:25.055Z,57.90
2019-06-26T14:06:29.357Z,57.10
2019-06-26T14:11:33.943Z,56.50
2019-06-26T14:16:38.337Z,57.10
2019-06-26T14:21:42.653Z,55.20
2019-06-26T14:26:47.189Z,53.00
2019-06-26T14:31:51.780Z,52.60
2019-06-26T14:36:56.207Z,51.30
2019-06-26T14:42:00.458Z,51.00
2019-06-26T14:47:04.882Z,52.20
2019-06-26T14:52:09.498Z,51.60
2019-06-26T14:57:13.827Z,51.90
2019-06-26T15:02:18.213Z,50.70
2019-06-26T15:07:22.532Z,49.40
2019-06-26T15:12:26.922Z,49.00
2019-06-26T15:17:31.268Z,46.60
2019-06-26T15:22:35.692Z,47.20
2019-06-26T15:27:40.005Z,46.90
2019-06-26T15:32:44.323Z,46.50
2019-06-26T15:37:48.887Z,45.80
2019-06-26T15:42:53.199Z,45.30
2019-06-26T15:47:57.594Z,44.30
2019-06-26T15:53:02.233Z,44.80
2019-06-26T15:58:06.594Z,46.50
2019-06-26T16:03:10.928Z,44.70
2019-06-26T16:08:15.530Z,44.50
2019-06-26T16:13:19.922Z,43.30
2019-06-26T16:18:28.896Z,43.90
2019-06-26T16:23:33.231Z,43.80
2019-06-26T16:28:37.829Z,44.30
2019-06-26T16:33:42.227Z,43.60
2019-06-26T16:38:46.554Z,44.60
2019-06-26T16:43:50.990Z,43.80
2019-06-26T16:48:55.272Z,43.50
2019-06-26T16:53:59.598Z,43.30
2019-06-26T16:59:03.916Z,42.20
2019-06-26T17:04:08.298Z,42.40
2019-06-26T17:09:12.782Z,41.60
2019-06-26T17:14:17.100Z,41.60
2019-06-26T17:19:21.428Z,44.10
2019-06-26T17:24:25.834Z,42.30
2019-06-26T17:29:30.507Z,41.60
2019-06-26T17:34:34.890Z,40.50
2019-06-26T17:39:39.322Z,40.30
2019-06-26T17:44:43.649Z,40.50
2019-06-26T17:49:48.028Z,40.40
2019-06-26T17:54:52.348Z,41.00
2019-06-26T17:59:57.000Z,42.30
2019-06-26T18:05:01.418Z,41.60
2019-06-26T18:10:11.952Z,41.50
2019-06-26T18:15:16.349Z,43.10
2019-06-26T18:20:22.406Z,44.50
2019-06-26T18:25:26.731Z,44.00
2019-06-26T18:30:31.262Z,43.10
2019-06-26T18:35:35.670Z,43.60
2019-06-26T18:40:40.064Z,45.10
2019-06-26T18:45:44.467Z,48.30
2019-06-26T18:50:48.789Z,52.70
2019-06-26T18:55:53.609Z,56.30
2019-06-26T19:00:58.201Z,61.30
2019-06-26T19:06:02.598Z,66.30
2019-06-26T19:11:06.920Z,68.90
2019-06-26T19:16:11.237Z,72.70
2019-06-26T19:21:15.640Z,74.60
2019-06-26T19:26:20.076Z,77.50
2019-06-26T19:31:24.390Z,79.30
2019-06-26T19:36:28.904Z,80.50
2019-06-26T19:41:33.295Z,80.90
2019-06-26T19:46:37.633Z,82.40
2019-06-26T19:51:42.018Z,83.30
2019-06-26T20:02:18.546Z,86.40
2019-06-26T20:35:38.705Z,91.10
2019-06-26T20:40:41.357Z,91.70
2019-06-26T20:45:45.767Z,92.20
2019-06-26T20:50:51.012Z,92.40
2019-06-26T20:55:55.400Z,92.60
2019-06-26T21:00:59.777Z,92.50
2019-06-26T21:06:04.289Z,92.90
2019-06-26T21:11:08.729Z,92.80
2019-06-26T21:16:13.049Z,93.10
2019-06-26T21:21:17.456Z,93.20
2019-06-26T21:26:21.758Z,93.40
2019-06-26T21:31:26.162Z,93.50
2019-06-26T21:36:30.477Z,93.70
2019-06-26T21:41:34.788Z,93.80
2019-06-26T21:46:39.118Z,93.80
2019-06-26T21:51:43.511Z,93.90
2019-06-26T21:56:47.895Z,93.90
2019-06-26T22:01:52.538Z,94.10
2019-06-26T22:06:56.927Z,94.40
2019-06-26T22:12:01.568Z,94.40
2019-06-26T22:17:05.947Z,94.40
2019-06-26T22:22:10.266Z,94.60
2019-06-26T22:27:14.746Z,94.70
2019-06-26T22:32:19.386Z,94.90
2019-06-26T22:37:23.881Z,95.10
2019-06-26T22:42:28.285Z,95.20
2019-06-26T22:47:32.734Z,95.30
2019-06-26T22:52:37.782Z,95.00
2019-06-26T22:57:42.170Z,95.20
2019-06-26T23:02:46.568Z,95.30
2019-06-26T23:07:50.902Z,95.20
2019-06-26T23:12:55.291Z,94.90
2019-06-26T23:17:59.752Z,95.30
2019-06-26T23:23:04.223Z,95.10
2019-06-26T23:28:08.682Z,95.30
2019-06-26T23:33:13.075Z,95.50
2019-06-26T23:38:17.389Z,95.70
2019-06-26T23:43:21.850Z,95.60
2019-06-26T23:48:26.240Z,96.00
2019-06-26T23:53:30.561Z,96.00
2019-06-26T23:58:34.958Z,96.10
